Time;durP1;ratioP1;P1;durP2;ratioP2;P2;SDS_P1;SDS_P2;PMS_P1;PMS_P2;Temp;Humidity;BMP_temperature;BMP_pressure;BME280_temperature;BME280_humidity;BME280_pressure;Samples;Min_cycle;Max_cycle;Signal;HPM_P1;HPM_P2
2023/05/01 00:00:22;;;;;;;1.30;0.70;;;16.10;99.90;;;;;;4977526;28;20258;-92
2023/05/01 00:02:54;;;;;;;4.03;0.70;;;16.10;99.90;;;;;;4976579;28;20211;-90
2023/05/01 00:05:26;;;;;;;0.70;0.67;;;16.00;99.90;;;;;;4996832;28;20207;-92
2023/05/01 00:08:00;;;;;;;0.90;0.60;;;16.10;99.90;;;;;;4994799;28;20175;-88
2023/05/01 00:10:31;;;;;;;0.73;0.60;;;16.00;99.90;;;;;;4984773;28;20258;-91
2023/05/01 00:13:02;;;;;;;1.57;0.60;;;16.00;99.90;;;;;;4977322;28;20207;-89
2023/05/01 00:15:33;;;;;;;0.80;0.60;;;16.10;99.90;;;;;;4976812;28;20203;-89
2023/05/01 00:18:04;;;;;;;0.57;0.50;;;16.30;99.90;;;;;;4975688;28;20203;-90
2023/05/01 00:20:36;;;;;;;3.30;0.67;;;16.30;99.90;;;;;;4976409;28;20227;-91
2023/05/01 00:23:09;;;;;;;0.70;0.70;;;16.30;99.90;;;;;;4976091;28;20261;-90
2023/05/01 00:25:40;;;;;;;1.00;0.50;;;16.30;99.90;;;;;;4976158;28;20211;-89
2023/05/01 00:28:11;;;;;;;0.53;0.53;;;16.20;99.90;;;;;;4975466;28;20682;-90
2023/05/01 00:30:42;;;;;;;2.20;0.53;;;16.10;99.90;;;;;;4976543;28;20568;-91
2023/05/01 00:33:14;;;;;;;0.97;0.70;;;16.00;99.90;;;;;;4976432;28;20211;-90
2023/05/01 00:35:46;;;;;;;0.80;0.60;;;16.00;99.90;;;;;;4975902;28;20278;-90
2023/05/01 00:38:19;;;;;;;1.20;0.60;;;15.90;99.90;;;;;;4975319;28;20273;-90
2023/05/01 00:40:50;;;;;;;0.67;0.57;;;15.90;99.90;;;;;;4962642;28;20195;-91
2023/05/01 00:43:21;;;;;;;1.10;0.70;;;15.80;99.90;;;;;;4975517;28;20211;-90
2023/05/01 00:45:53;;;;;;;2.57;2.37;;;15.80;99.90;;;;;;4975807;28;20639;-90
2023/05/01 00:48:24;;;;;;;1.10;0.80;;;15.90;99.90;;;;;;4974773;28;20207;-90
2023/05/01 00:50:56;;;;;;;1.10;0.60;;;15.80;99.90;;;;;;4975038;28;20202;-90
2023/05/01 00:53:30;;;;;;;0.50;0.50;;;15.80;99.90;;;;;;4975779;28;20207;-89
2023/05/01 00:56:03;;;;;;;0.70;0.50;;;15.80;99.90;;;;;;4975120;28;20206;-90
2023/05/01 00:58:34;;;;;;;1.60;0.67;;;15.90;99.90;;;;;;4955614;28;20215;-90
2023/05/01 01:01:07;;;;;;;0.87;0.80;;;15.80;99.90;;;;;;4955625;28;20215;-90
2023/05/01 01:03:39;;;;;;;1.77;0.70;;;15.70;99.90;;;;;;4970849;28;20621;-90
2023/05/01 01:06:16;;;;;;;0.83;0.80;;;15.60;99.90;;;;;;4975678;28;20202;-90
2023/05/01 01:09:01;;;;;;;0.97;0.77;;;15.60;99.90;;;;;;4974464;28;20210;-90
2023/05/01 01:11:40;;;;;;;1.40;0.67;;;15.60;99.90;;;;;;4975448;28;20207;-90
2023/05/01 01:14:18;;;;;;;1.17;0.70;;;15.60;99.90;;;;;;4975216;28;20206;-90
2023/05/01 01:16:57;;;;;;;0.63;0.60;;;15.60;99.90;;;;;;4974818;28;20218;-89
2023/05/01 01:20:05;;;;;;;1.13;0.70;;;15.40;99.90;;;;;;4972313;28;20231;-89
2023/05/01 01:22:39;;;;;;;2.43;1.20;;;15.30;99.90;;;;;;4960128;28;20608;-90
2023/05/01 01:25:30;;;;;;;1.23;0.70;;;15.40;99.90;;;;;;4973349;28;20543;-91
2023/05/01 01:28:20;;;;;;;1.83;0.90;;;15.40;99.90;;;;;;4972952;28;20203;-89
2023/05/01 01:31:18;;;;;;;2.27;0.70;;;15.40;99.90;;;;;;4974966;28;20215;-92
2023/05/01 01:34:05;;;;;;;1.47;0.90;;;15.30;99.90;;;;;;4974589;28;20203;-90
2023/05/01 01:36:47;;;;;;;1.00;0.87;;;15.30;99.90;;;;;;4974592;28;20203;-91
2023/05/01 01:39:30;;;;;;;1.53;0.63;;;15.20;99.90;;;;;;4973226;28;20234;-90
2023/05/01 01:42:01;;;;;;;0.93;0.47;;;15.20;99.90;;;;;;4974597;28;20222;-90
2023/05/01 01:44:38;;;;;;;1.77;0.80;;;15.20;99.90;;;;;;4963440;28;20671;-92
2023/05/01 01:47:13;;;;;;;1.13;0.67;;;15.10;99.90;;;;;;4974485;28;20217;-92
2023/05/01 01:49:50;;;;;;;1.63;0.73;;;15.10;99.90;;;;;;4974071;28;20257;-92
2023/05/01 01:52:23;;;;;;;1.97;0.90;;;15.00;99.90;;;;;;4975078;28;20692;-92
2023/05/01 01:54:57;;;;;;;2.40;0.90;;;14.90;99.90;;;;;;4976127;28;20670;-92
2023/05/01 01:57:29;;;;;;;1.73;0.80;;;14.90;99.90;;;;;;4977875;28;20572;-93
2023/05/01 02:00:00;;;;;;;1.60;1.00;;;14.90;99.90;;;;;;4976775;28;20235;-93
2023/05/01 02:02:32;;;;;;;3.40;1.03;;;15.00;99.90;;;;;;4975890;28;20196;-93
2023/05/01 02:05:07;;;;;;;2.10;0.83;;;14.90;99.90;;;;;;4970330;28;20204;-91
2023/05/01 02:07:41;;;;;;;2.07;1.00;;;14.90;99.90;;;;;;4958829;28;20214;-92
2023/05/01 02:10:15;;;;;;;3.00;1.13;;;14.90;99.90;;;;;;4958200;28;20211;-92
2023/05/01 02:12:48;;;;;;;3.47;1.07;;;14.70;99.90;;;;;;4981061;28;20253;-91
2023/05/01 02:15:21;;;;;;;2.17;0.80;;;14.70;99.90;;;;;;4998825;28;20214;-92
2023/05/01 02:17:53;;;;;;;1.70;0.90;;;14.70;99.90;;;;;;4983370;28;20207;-91
2023/05/01 02:20:26;;;;;;;3.17;0.90;;;14.60;99.90;;;;;;4982314;28;20303;-91
2023/05/01 02:22:58;;;;;;;2.83;0.93;;;14.60;99.90;;;;;;4978638;28;20214;-92
2023/05/01 02:25:35;;;;;;;1.30;0.70;;;14.60;99.90;;;;;;4978144;28;20673;-91
2023/05/01 02:28:10;;;;;;;3.63;0.97;;;14.60;99.90;;;;;;4977502;28;20263;-92
2023/05/01 02:30:41;;;;;;;2.23;1.00;;;14.60;99.90;;;;;;4978546;28;20557;-91
2023/05/01 02:33:12;;;;;;;3.80;1.20;;;14.60;99.90;;;;;;4979427;28;20203;-91
2023/05/01 02:35:47;;;;;;;2.50;1.03;;;14.60;99.90;;;;;;4978666;28;20215;-91
2023/05/01 02:38:19;;;;;;;2.77;0.97;;;14.60;99.90;;;;;;4978146;28;20205;-91
2023/05/01 02:40:55;;;;;;;3.30;1.00;;;14.60;99.90;;;;;;4971381;28;20299;-90
2023/05/01 02:43:30;;;;;;;3.20;1.20;;;14.60;99.90;;;;;;4978346;28;20226;-91
2023/05/01 02:46:03;;;;;;;3.33;1.37;;;14.60;99.90;;;;;;4978283;28;20198;-90
2023/05/01 02:48:36;;;;;;;6.10;1.13;;;14.60;99.90;;;;;;4977030;28;20271;-91
2023/05/01 02:51:10;;;;;;;5.27;1.40;;;14.60;99.90;;;;;;4978655;28;20211;-92
2023/05/01 02:53:41;;;;;;;6.50;1.50;;;14.60;99.90;;;;;;4978191;28;20249;-92
2023/05/01 02:56:13;;;;;;;3.23;1.10;;;14.60;99.90;;;;;;4978504;28;20241;-92
2023/05/01 02:58:44;;;;;;;3.03;1.23;;;14.50;99.90;;;;;;4979394;28;21032;-91
2023/05/01 03:01:16;;;;;;;6.20;1.47;;;14.40;99.90;;;;;;4979183;28;20617;-91
2023/05/01 03:03:48;;;;;;;4.73;1.07;;;14.30;99.90;;;;;;4978259;28;20625;-92
2023/05/01 03:06:21;;;;;;;4.70;1.30;;;14.30;99.90;;;;;;4979537;28;20219;-92
2023/05/01 03:08:52;;;;;;;4.37;1.30;;;14.20;99.90;;;;;;4978617;28;20239;-91
2023/05/01 03:11:23;;;;;;;4.97;1.27;;;14.20;99.90;;;;;;4979061;28;20209;-93
2023/05/01 03:13:55;;;;;;;6.43;1.67;;;14.20;99.90;;;;;;4979058;28;20203;-91
2023/05/01 03:16:27;;;;;;;4.43;1.40;;;14.10;99.90;;;;;;4979254;28;20261;-91
2023/05/01 03:18:58;;;;;;;3.97;1.23;;;14.10;99.90;;;;;;4977176;28;20340;-91
2023/05/01 03:21:31;;;;;;;7.67;1.70;;;14.10;99.90;;;;;;4977355;28;20301;-91
2023/05/01 03:24:02;;;;;;;6.00;1.50;;;14.10;99.90;;;;;;4976295;28;20227;-90
2023/05/01 03:26:34;;;;;;;5.87;1.87;;;14.00;99.90;;;;;;4976813;28;20230;-91
2023/05/01 03:29:05;;;;;;;3.80;1.50;;;14.00;99.90;;;;;;4975676;28;20211;-90
2023/05/01 03:31:36;;;;;;;3.77;1.47;;;14.00;99.90;;;;;;4976789;28;20230;-91
2023/05/01 03:34:07;;;;;;;3.97;1.30;;;14.00;99.90;;;;;;4977238;28;20237;-90
2023/05/01 03:36:41;;;;;;;3.50;1.27;;;14.00;99.90;;;;;;4977107;28;20219;-91
2023/05/01 03:39:12;;;;;;;7.07;1.97;;;14.00;99.90;;;;;;4976450;28;20232;-91
2023/05/01 03:41:43;;;;;;;7.87;1.73;;;13.90;99.90;;;;;;4976611;28;20235;-91
2023/05/01 03:44:15;;;;;;;4.43;1.30;;;13.90;99.90;;;;;;4977211;28;20211;-89
2023/05/01 03:46:47;;;;;;;5.30;1.27;;;13.90;99.90;;;;;;4977105;28;20258;-91
2023/05/01 03:49:17;;;;;;;4.53;1.70;;;13.80;99.90;;;;;;4958052;28;20215;-90
2023/05/01 03:51:50;;;;;;;7.83;1.60;;;13.80;99.90;;;;;;4957557;29;20667;-90
2023/05/01 03:54:22;;;;;;;3.90;1.50;;;13.90;99.90;;;;;;4970501;29;20238;-91
2023/05/01 03:56:53;;;;;;;5.10;1.50;;;13.80;99.90;;;;;;4958062;28;20212;-91
2023/05/01 03:59:24;;;;;;;4.90;1.67;;;13.80;99.90;;;;;;4957505;28;20213;-92
2023/05/01 04:01:55;;;;;;;3.27;1.40;;;13.80;99.90;;;;;;4958159;28;20231;-92
2023/05/01 04:04:28;;;;;;;3.97;1.47;;;13.80;99.90;;;;;;4958845;28;20216;-91
2023/05/01 04:07:01;;;;;;;4.97;1.77;;;13.70;99.90;;;;;;4958270;29;20626;-91
2023/05/01 04:09:33;;;;;;;6.87;1.57;;;13.70;99.90;;;;;;4957184;28;20218;-91
2023/05/01 04:12:04;;;;;;;4.93;1.60;;;13.80;99.90;;;;;;4957266;28;20207;-91
2023/05/01 04:14:36;;;;;;;5.93;1.63;;;13.70;99.90;;;;;;4958073;28;20211;-91
2023/05/01 04:17:06;;;;;;;5.20;1.93;;;13.70;99.90;;;;;;4957341;28;20211;-91
2023/05/01 04:19:38;;;;;;;5.07;1.97;;;13.60;99.90;;;;;;4959990;29;20219;-91
2023/05/01 04:22:11;;;;;;;6.37;1.80;;;13.60;99.90;;;;;;4959659;28;20690;-92
2023/05/01 04:24:42;;;;;;;4.27;1.60;;;13.60;99.90;;;;;;4966166;28;20223;-91
2023/05/01 04:27:14;;;;;;;6.10;1.90;;;13.60;99.90;;;;;;4979522;28;20267;-91
2023/05/01 04:29:45;;;;;;;5.47;1.53;;;13.60;99.90;;;;;;4978443;28;20231;-91
2023/05/01 04:32:16;;;;;;;4.57;1.57;;;13.60;99.90;;;;;;4962504;28;20211;-91
2023/05/01 04:34:46;;;;;;;6.97;1.70;;;13.60;99.90;;;;;;4959052;28;20207;-91
2023/05/01 04:37:19;;;;;;;5.70;1.80;;;13.60;99.90;;;;;;4956813;29;20258;-90
2023/05/01 04:39:51;;;;;;;5.27;1.70;;;13.60;99.90;;;;;;4957018;28;20666;-90
2023/05/01 04:42:22;;;;;;;5.83;1.80;;;13.60;99.90;;;;;;4957685;28;20237;-90
2023/05/01 04:44:53;;;;;;;9.03;2.43;;;13.50;99.90;;;;;;4956945;28;20258;-90
2023/05/01 04:47:24;;;;;;;5.80;1.80;;;13.50;99.90;;;;;;4956945;28;20282;-91
2023/05/01 04:49:56;;;;;;;5.37;1.50;;;13.50;99.90;;;;;;4972676;28;20206;-90
2023/05/01 04:52:29;;;;;;;4.30;1.80;;;13.50;99.90;;;;;;4976977;28;20215;-91
2023/05/01 04:54:59;;;;;;;6.90;1.70;;;13.50;99.90;;;;;;4977005;28;20273;-91
2023/05/01 04:57:31;;;;;;;4.07;1.47;;;13.40;99.90;;;;;;4976716;28;20215;-94
2023/05/01 05:00:02;;;;;;;4.67;1.70;;;13.40;99.90;;;;;;4975899;28;20226;-90
2023/05/01 05:02:33;;;;;;;5.33;1.80;;;13.30;99.90;;;;;;4976174;28;20689;-92
2023/05/01 05:05:05;;;;;;;5.40;1.60;;;13.30;99.90;;;;;;4984126;28;20207;-91
2023/05/01 05:07:38;;;;;;;6.17;1.70;;;13.30;99.90;;;;;;4985941;28;20274;-95
2023/05/01 05:10:10;;;;;;;6.80;1.80;;;13.20;99.90;;;;;;4983545;28;20206;-92
2023/05/01 05:12:41;;;;;;;6.93;1.80;;;13.30;99.90;;;;;;4975629;28;20215;-92
2023/05/01 05:15:13;;;;;;;4.87;1.80;;;13.30;99.90;;;;;;4975497;28;20207;-92
2023/05/01 05:17:44;;;;;;;5.30;1.60;;;13.30;99.90;;;;;;4974713;28;20227;-92
2023/05/01 05:20:16;;;;;;;6.53;1.80;;;13.30;99.90;;;;;;4975098;28;20223;-92
2023/05/01 05:22:48;;;;;;;6.27;1.90;;;13.20;99.90;;;;;;4975201;28;20337;-93
2023/05/01 05:25:19;;;;;;;5.07;1.70;;;13.20;99.90;;;;;;4975468;28;20211;-92
2023/05/01 05:27:50;;;;;;;4.53;1.33;;;13.10;99.90;;;;;;4975574;28;20226;-92
2023/05/01 05:30:22;;;;;;;6.33;1.73;;;13.10;99.90;;;;;;4974056;28;20207;-93
2023/05/01 05:32:53;;;;;;;4.00;1.50;;;13.10;99.90;;;;;;4974595;28;20270;-91
2023/05/01 05:35:26;;;;;;;6.67;1.67;;;13.10;99.90;;;;;;4974458;28;20238;-90
2023/05/01 05:37:59;;;;;;;2.57;1.20;;;13.10;99.90;;;;;;4974240;28;20666;-90
2023/05/01 05:40:30;;;;;;;6.47;1.70;;;13.10;99.90;;;;;;4974927;28;20234;-90
2023/05/01 05:43:00;;;;;;;5.63;1.63;;;13.00;99.90;;;;;;4974872;28;20759;-88
2023/05/01 05:45:34;;;;;;;3.30;1.67;;;13.00;99.90;;;;;;4974736;28;20215;-91
2023/05/01 05:48:06;;;;;;;3.03;1.67;;;13.00;99.90;;;;;;4972586;28;20207;-90
2023/05/01 05:50:37;;;;;;;5.37;1.50;;;13.00;99.90;;;;;;4974692;28;20206;-91
2023/05/01 05:53:10;;;;;;;3.90;1.30;;;13.00;99.90;;;;;;4974781;28;20279;-91
2023/05/01 05:55:42;;;;;;;6.00;1.67;;;12.90;99.90;;;;;;4974790;28;20203;-90
2023/05/01 05:58:13;;;;;;;4.67;1.30;;;13.00;99.90;;;;;;4974060;28;20206;-91
2023/05/01 06:00:45;;;;;;;4.90;1.80;;;13.00;99.90;;;;;;4974648;28;20265;-92
2023/05/01 06:03:16;;;;;;;4.83;1.70;;;12.90;99.90;;;;;;4974834;28;20235;-92
2023/05/01 06:05:48;;;;;;;3.80;1.60;;;12.80;99.90;;;;;;4975051;28;20725;-92
2023/05/01 06:08:20;;;;;;;7.30;1.70;;;12.80;99.90;;;;;;4974181;28;20207;-93
2023/05/01 06:10:52;;;;;;;3.23;1.47;;;12.80;99.90;;;;;;4973816;28;20214;-92
2023/05/01 06:13:24;;;;;;;3.87;1.73;;;12.70;99.90;;;;;;4973936;28;20214;-92
2023/05/01 06:15:55;;;;;;;3.87;1.33;;;12.70;99.90;;;;;;4974936;28;20266;-92
2023/05/01 06:18:26;;;;;;;3.37;1.50;;;12.60;99.90;;;;;;4974364;28;20203;-92
2023/05/01 06:20:58;;;;;;;5.93;1.70;;;12.60;99.90;;;;;;4974614;28;20297;-91
2023/05/01 06:23:32;;;;;;;2.30;1.37;;;12.70;99.90;;;;;;4975067;28;20289;-92
2023/05/01 06:26:03;;;;;;;5.03;2.07;;;12.70;99.90;;;;;;4975030;28;20205;-93
2023/05/01 06:28:35;;;;;;;5.37;1.90;;;12.60;99.90;;;;;;4974487;28;20203;-93
2023/05/01 06:31:06;;;;;;;6.10;1.43;;;12.60;99.90;;;;;;4983107;28;20286;-91
2023/05/01 06:33:37;;;;;;;2.50;1.30;;;12.50;99.90;;;;;;4997276;28;20254;-92
2023/05/01 06:36:09;;;;;;;3.93;1.67;;;12.60;99.90;;;;;;4996894;28;20187;-93
2023/05/01 06:38:47;;;;;;;5.17;1.80;;;12.60;99.90;;;;;;4974953;28;20212;-90
2023/05/01 06:41:18;;;;;;;5.83;1.97;;;12.60;99.90;;;;;;4974297;28;20277;-90
2023/05/01 06:43:49;;;;;;;5.37;1.50;;;12.50;99.90;;;;;;4974373;28;20207;-90
2023/05/01 06:46:20;;;;;;;5.17;1.53;;;12.50;99.90;;;;;;4974092;28;20609;-90
2023/05/01 06:48:51;;;;;;;6.70;1.97;;;12.50;99.90;;;;;;4973360;28;20230;-92
2023/05/01 06:51:22;;;;;;;5.27;1.77;;;12.50;99.90;;;;;;4973472;28;20211;-91
2023/05/01 06:53:54;;;;;;;3.33;1.40;;;12.50;99.90;;;;;;4974556;28;20606;-92
2023/05/01 06:56:26;;;;;;;5.53;1.60;;;12.50;99.90;;;;;;4974132;28;20207;-91
2023/05/01 06:58:57;;;;;;;4.87;1.60;;;12.40;99.90;;;;;;4974079;28;20218;-91
2023/05/01 07:01:28;;;;;;;4.43;1.47;;;12.50;99.90;;;;;;4978565;28;20211;-91
2023/05/01 07:04:02;;;;;;;4.90;1.60;;;12.40;99.90;;;;;;4977488;28;20241;-91
2023/05/01 07:06:33;;;;;;;4.17;1.43;;;12.40;99.90;;;;;;4977454;28;20215;-91
2023/05/01 07:09:06;;;;;;;8.23;1.90;;;12.40;99.90;;;;;;4976788;28;20214;-92
2023/05/01 07:11:38;;;;;;;6.50;1.70;;;12.50;99.90;;;;;;4977783;28;20269;-92
2023/05/01 07:14:09;;;;;;;9.07;1.80;;;12.40;99.90;;;;;;4977330;28;20206;-91
2023/05/01 07:16:41;;;;;;;4.70;1.70;;;12.40;99.90;;;;;;4977224;28;20597;-91
2023/05/01 07:19:12;;;;;;;7.33;2.00;;;12.40;99.90;;;;;;4976345;28;20642;-92
2023/05/01 07:21:43;;;;;;;5.43;2.17;;;12.40;99.90;;;;;;4977815;28;20626;-91
2023/05/01 07:24:16;;;;;;;6.77;1.77;;;12.40;99.90;;;;;;4977396;28;20211;-92
2023/05/01 07:26:47;;;;;;;7.67;1.90;;;12.40;99.90;;;;;;4975724;28;20215;-92
2023/05/01 07:29:18;;;;;;;5.03;2.03;;;12.30;99.90;;;;;;4976689;28;20211;-92
2023/05/01 07:31:49;;;;;;;4.53;1.67;;;12.20;99.90;;;;;;4977129;28;20207;-91
2023/05/01 07:34:20;;;;;;;7.73;2.07;;;12.20;99.90;;;;;;4977786;28;20219;-92
2023/05/01 07:36:51;;;;;;;6.43;1.80;;;12.20;99.90;;;;;;4976102;28;20662;-92
2023/05/01 07:39:24;;;;;;;9.13;2.67;;;12.20;99.90;;;;;;4976556;28;20818;-92
2023/05/01 07:41:54;;;;;;;8.17;2.10;;;12.20;99.90;;;;;;4977029;28;20574;-92
2023/05/01 07:44:26;;;;;;;5.63;2.10;;;12.20;99.90;;;;;;4976629;28;20207;-91
2023/05/01 07:47:02;;;;;;;7.93;2.40;;;12.20;99.90;;;;;;4976736;28;20526;-91
2023/05/01 07:49:37;;;;;;;8.90;1.90;;;12.20;99.90;;;;;;4957006;29;20203;-92
2023/05/01 07:52:08;;;;;;;10.03;2.53;;;12.20;99.90;;;;;;4957807;29;20215;-91
2023/05/01 07:54:41;;;;;;;9.93;2.37;;;12.10;99.90;;;;;;4958058;28;20203;-92
2023/05/01 07:57:12;;;;;;;7.80;2.50;;;12.10;99.90;;;;;;4957279;28;20296;-90
2023/05/01 07:59:43;;;;;;;5.40;1.70;;;12.20;99.90;;;;;;4956515;28;20208;-90
2023/05/01 08:02:17;;;;;;;9.53;2.50;;;12.20;99.90;;;;;;4957409;28;20220;-90
2023/05/01 08:04:48;;;;;;;6.03;2.03;;;12.10;99.90;;;;;;4957162;29;20207;-92
2023/05/01 08:07:20;;;;;;;5.43;1.90;;;12.10;99.90;;;;;;4957068;28;20208;-90
2023/05/01 08:09:53;;;;;;;7.90;2.10;;;12.00;99.90;;;;;;4956250;28;20208;-90
2023/05/01 08:12:30;;;;;;;9.57;2.27;;;11.90;99.90;;;;;;4957089;28;20207;-92
2023/05/01 08:15:00;;;;;;;10.57;2.57;;;11.90;99.90;;;;;;4957454;28;20207;-92
2023/05/01 08:17:32;;;;;;;9.20;2.20;;;11.70;99.90;;;;;;4956961;29;20290;-92
2023/05/01 08:20:04;;;;;;;6.87;2.40;;;11.70;99.90;;;;;;4956581;28;20686;-92
2023/05/01 08:22:36;;;;;;;7.73;2.23;;;11.60;99.90;;;;;;4956933;28;20219;-92
2023/05/01 08:25:10;;;;;;;7.07;2.40;;;11.70;99.90;;;;;;4957193;29;20220;-92
2023/05/01 08:27:41;;;;;;;7.77;2.20;;;11.60;99.90;;;;;;4956207;28;20211;-91
2023/05/01 08:30:12;;;;;;;9.10;2.33;;;11.60;99.90;;;;;;4957266;28;20218;-90
2023/05/01 08:32:43;;;;;;;8.73;1.83;;;11.60;99.90;;;;;;4957218;28;20266;-91
2023/05/01 08:35:14;;;;;;;9.30;2.00;;;11.60;99.90;;;;;;4957378;29;20215;-91
2023/05/01 08:37:46;;;;;;;6.83;2.17;;;11.60;99.90;;;;;;4971485;28;20215;-92
2023/05/01 08:40:20;;;;;;;8.57;2.43;;;11.50;99.90;;;;;;4978942;28;20258;-91
2023/05/01 08:42:51;;;;;;;10.07;2.37;;;11.40;99.90;;;;;;4973505;28;20235;-90
2023/05/01 08:45:26;;;;;;;6.57;1.97;;;11.50;99.90;;;;;;4962055;28;20199;-91
2023/05/01 08:48:00;;;;;;;6.03;2.20;;;11.50;99.90;;;;;;4975535;28;20225;-89
2023/05/01 08:50:32;;;;;;;8.40;2.10;;;11.40;99.90;;;;;;4976370;28;20210;-88
2023/05/01 08:53:04;;;;;;;6.30;2.03;;;11.30;99.90;;;;;;4975958;28;20242;-88
2023/05/01 08:55:39;;;;;;;12.10;2.63;;;11.20;99.90;;;;;;4968284;28;20261;-90
2023/05/01 08:58:14;;;;;;;5.67;1.73;;;11.20;99.90;;;;;;4975011;28;20207;-91
2023/05/01 09:00:47;;;;;;;6.00;1.80;;;11.20;99.90;;;;;;4975977;28;20210;-89
2023/05/01 09:03:20;;;;;;;7.50;1.90;;;11.10;99.90;;;;;;4974447;28;20701;-89
2023/05/01 09:05:52;;;;;;;9.07;1.73;;;11.00;99.90;;;;;;4969491;28;20207;-90
2023/05/01 09:08:23;;;;;;;10.03;2.40;;;11.00;99.90;;;;;;4960820;28;20214;-89
2023/05/01 09:10:59;;;;;;;8.70;2.03;;;10.90;99.90;;;;;;4976080;28;20207;-89
2023/05/01 09:13:31;;;;;;;10.23;2.00;;;10.80;99.90;;;;;;4975731;28;20221;-88
2023/05/01 09:16:02;;;;;;;6.27;1.90;;;10.80;99.90;;;;;;4975577;28;20262;-89
2023/05/01 09:18:35;;;;;;;6.77;2.27;;;10.70;99.90;;;;;;4974560;28;20214;-90
2023/05/01 09:21:07;;;;;;;12.27;2.47;;;10.70;99.90;;;;;;4975266;28;20223;-92
2023/05/01 09:23:39;;;;;;;7.13;2.20;;;10.60;99.90;;;;;;5006087;28;20293;-91
2023/05/01 09:26:13;;;;;;;6.77;2.17;;;10.40;99.90;;;;;;4981106;28;20662;-90
2023/05/01 09:28:45;;;;;;;6.70;1.90;;;10.40;99.90;;;;;;4960419;28;20675;-91
2023/05/01 09:31:27;;;;;;;7.37;1.80;;;10.40;99.90;;;;;;4956066;28;20204;-91
2023/05/01 09:34:00;;;;;;;8.03;1.90;;;10.40;99.90;;;;;;4963897;28;20203;-91
2023/05/01 09:36:33;;;;;;;7.70;1.77;;;10.30;99.90;;;;;;4975427;28;20207;-90
2023/05/01 09:39:05;;;;;;;6.70;1.70;;;10.20;99.90;;;;;;4974985;28;20577;-91
2023/05/01 09:41:53;;;;;;;6.83;1.80;;;10.10;99.90;;;;;;4974304;28;20258;-91
2023/05/01 09:44:25;;;;;;;6.83;1.57;;;10.10;99.90;;;;;;4974840;28;20293;-91
2023/05/01 09:46:57;;;;;;;10.37;2.03;;;10.10;99.90;;;;;;4973677;28;20207;-92
2023/05/01 09:49:49;;;;;;;7.60;2.20;;;10.10;99.90;;;;;;4974202;28;20337;-91
2023/05/01 09:52:20;;;;;;;8.93;1.87;;;10.10;99.90;;;;;;4971777;28;20211;-90
2023/05/01 09:54:52;;;;;;;11.97;2.37;;;10.10;99.90;;;;;;4974714;28;20268;-89
2023/05/01 09:57:41;;;;;;;11.37;2.53;;;10.10;99.90;;;;;;4974596;28;20254;-89
2023/05/01 10:00:14;;;;;;;7.40;1.83;;;10.20;99.90;;;;;;4974835;28;20210;-90
2023/05/01 10:02:46;;;;;;;7.03;2.10;;;10.20;99.90;;;;;;4974879;28;20211;-90
2023/05/01 10:05:17;;;;;;;8.43;1.87;;;10.10;99.90;;;;;;4974582;28;20233;-89
2023/05/01 10:07:59;;;;;;;8.70;2.10;;;10.20;99.90;;;;;;4973733;28;20246;-90
2023/05/01 10:10:31;;;;;;;6.97;2.03;;;10.10;99.90;;;;;;4974887;28;20214;-90
2023/05/01 10:13:15;;;;;;;10.50;2.50;;;10.10;99.90;;;;;;4974703;28;20210;-90
2023/05/01 10:15:47;;;;;;;7.27;2.20;;;10.20;99.90;;;;;;4975033;28;20282;-90
2023/05/01 10:18:20;;;;;;;8.17;2.33;;;10.20;99.90;;;;;;4974129;28;20305;-89
2023/05/01 10:20:52;;;;;;;7.97;2.20;;;10.20;99.90;;;;;;4974826;28;20206;-90
2023/05/01 10:23:23;;;;;;;6.13;1.80;;;10.30;99.90;;;;;;4974713;28;20704;-91
2023/05/01 10:25:54;;;;;;;10.00;1.93;;;10.30;99.90;;;;;;4973874;28;20579;-91
2023/05/01 10:28:28;;;;;;;7.27;1.90;;;10.30;99.90;;;;;;4974192;28;20211;-91
2023/05/01 10:31:00;;;;;;;8.80;2.40;;;10.30;99.90;;;;;;4974587;28;20210;-91
2023/05/01 10:33:33;;;;;;;10.53;2.33;;;10.40;99.90;;;;;;4957295;28;20208;-91
2023/05/01 10:36:06;;;;;;;8.33;2.33;;;10.40;99.90;;;;;;4959233;28;20682;-91
2023/05/01 10:38:44;;;;;;;7.57;2.10;;;10.40;99.90;;;;;;4959082;28;20730;-91
2023/05/01 10:41:16;;;;;;;6.57;2.20;;;10.40;99.90;;;;;;4975454;28;20239;-91
2023/05/01 10:44:22;;;;;;;11.23;2.43;;;10.40;99.90;;;;;;4999042;28;20270;-90
2023/05/01 10:46:54;;;;;;;7.97;2.50;;;10.40;99.90;;;;;;4999229;28;20202;-91
2023/05/01 10:49:25;;;;;;;9.60;2.40;;;10.40;99.90;;;;;;4984324;28;20246;-91
2023/05/01 10:52:03;;;;;;;8.57;2.17;;;10.40;99.90;;;;;;4978797;28;20230;-91
2023/05/01 10:54:34;;;;;;;9.73;2.43;;;10.40;99.90;;;;;;4978166;28;20654;-91
2023/05/01 10:57:06;;;;;;;13.10;2.80;;;10.40;99.90;;;;;;4976941;28;20278;-90
2023/05/01 11:00:18;;;;;;;10.37;2.30;;;10.40;99.90;;;;;;4976962;28;20207;-90
2023/05/01 11:02:49;;;;;;;7.50;2.17;;;10.40;99.90;;;;;;4978355;28;20215;-90
2023/05/01 11:05:41;;;;;;;11.50;2.43;;;10.40;99.90;;;;;;4977564;28;20242;-90
2023/05/01 11:08:31;;;;;;;9.07;1.97;;;10.40;99.90;;;;;;4976535;28;20211;-89
2023/05/01 11:11:50;;;;;;;10.13;2.07;;;10.40;99.90;;;;;;4977698;28;20298;-91
2023/05/01 11:14:22;;;;;;;7.33;2.33;;;10.50;99.90;;;;;;4977250;28;20211;-91
2023/05/01 11:16:55;;;;;;;10.43;2.20;;;10.40;99.90;;;;;;4977792;28;20558;-90
2023/05/01 11:19:51;;;;;;;8.57;2.87;;;10.40;99.90;;;;;;4975505;28;20229;-89
2023/05/01 11:22:22;;;;;;;8.57;2.10;;;10.40;99.90;;;;;;4976290;28;20266;-90
2023/05/01 11:24:53;;;;;;;9.53;2.70;;;10.40;99.90;;;;;;4977484;28;20230;-90
2023/05/01 11:27:25;;;;;;;8.40;2.10;;;10.40;99.90;;;;;;4976940;28;20609;-90
2023/05/01 11:29:59;;;;;;;6.60;1.70;;;10.40;99.90;;;;;;4976767;28;20294;-92
2023/05/01 11:32:33;;;;;;;10.60;2.87;;;10.40;99.90;;;;;;4976443;28;20225;-92
2023/05/01 11:35:05;;;;;;;8.57;2.03;;;10.30;99.90;;;;;;4977281;28;20666;-89
2023/05/01 11:37:45;;;;;;;7.90;2.30;;;10.30;99.90;;;;;;4976169;28;20542;-91
2023/05/01 11:40:23;;;;;;;8.67;2.40;;;10.40;99.90;;;;;;4941576;29;20266;-92
2023/05/01 11:43:02;;;;;;;6.17;2.10;;;10.30;99.90;;;;;;4957731;28;20247;-92
2023/05/01 11:45:34;;;;;;;10.33;2.40;;;10.30;99.90;;;;;;4957046;28;20238;-91
2023/05/01 11:48:14;;;;;;;6.20;2.10;;;10.30;99.90;;;;;;4972136;28;20658;-91
2023/05/01 11:50:45;;;;;;;10.47;2.33;;;10.30;99.90;;;;;;4977183;28;20293;-92
2023/05/01 11:53:17;;;;;;;10.77;2.70;;;10.30;99.90;;;;;;4976824;28;20222;-92
2023/05/01 11:55:49;;;;;;;8.97;2.30;;;10.30;99.90;;;;;;4976752;28;20237;-91
2023/05/01 11:58:32;;;;;;;6.33;1.90;;;10.30;99.90;;;;;;4979906;28;20222;-91
2023/05/01 12:01:03;;;;;;;10.47;2.60;;;10.40;99.90;;;;;;4989010;28;20222;-91
2023/05/01 12:03:45;;;;;;;10.23;2.67;;;10.40;99.90;;;;;;4981873;28;20195;-90
2023/05/01 12:06:16;;;;;;;9.17;2.00;;;10.40;99.90;;;;;;4976280;28;20242;-91
2023/05/01 12:08:52;;;;;;;10.07;2.70;;;10.40;99.90;;;;;;4975414;28;20635;-92
2023/05/01 12:11:23;;;;;;;9.13;2.27;;;10.40;99.90;;;;;;4976510;28;20265;-90
2023/05/01 12:13:55;;;;;;;11.53;3.07;;;10.40;99.90;;;;;;4976274;28;20264;-90
2023/05/01 12:16:27;;;;;;;8.90;2.17;;;10.40;99.90;;;;;;4975267;28;20443;-91
2023/05/01 12:19:00;;;;;;;9.57;2.03;;;10.40;99.90;;;;;;4975585;28;20227;-89
2023/05/01 12:21:32;;;;;;;9.17;2.30;;;10.40;99.90;;;;;;4976004;28;20222;-91
2023/05/01 12:24:10;;;;;;;9.23;2.63;;;10.50;99.90;;;;;;4976270;28;20214;-91
2023/05/01 12:26:41;;;;;;;8.90;2.40;;;10.50;99.90;;;;;;4975759;28;20245;-89
2023/05/01 12:29:12;;;;;;;8.50;2.17;;;10.50;99.90;;;;;;4975370;28;20646;-91
2023/05/01 12:31:49;;;;;;;9.57;2.50;;;10.40;99.90;;;;;;4976344;28;20221;-90
2023/05/01 12:34:32;;;;;;;7.43;2.00;;;10.40;99.90;;;;;;4979357;28;20203;-92
2023/05/01 12:37:03;;;;;;;6.97;2.33;;;10.40;99.90;;;;;;4980115;28;20207;-92
2023/05/01 12:39:41;;;;;;;11.53;3.23;;;10.30;99.90;;;;;;4975494;28;20257;-92
2023/05/01 12:42:16;;;;;;;15.30;3.00;;;10.30;99.90;;;;;;4976600;28;20741;-92
2023/05/01 12:44:47;;;;;;;9.20;2.20;;;10.30;99.90;;;;;;4976680;28;20285;-91
2023/05/01 12:47:18;;;;;;;8.73;2.50;;;10.40;99.90;;;;;;4986369;28;20214;-91
2023/05/01 12:50:02;;;;;;;20.10;3.03;;;10.30;99.90;;;;;;4997181;28;20186;-93
2023/05/01 12:52:34;;;;;;;9.63;2.53;;;10.30;99.90;;;;;;4993070;28;20199;-91
2023/05/01 12:55:07;;;;;;;8.67;2.07;;;10.40;99.90;;;;;;4976559;28;20207;-91
2023/05/01 12:57:53;;;;;;;10.77;2.93;;;10.40;99.90;;;;;;4974784;28;20583;-92
2023/05/01 13:00:25;;;;;;;8.47;2.97;;;10.40;99.90;;;;;;4975567;28;20257;-91
2023/05/01 13:03:03;;;;;;;13.30;2.90;;;10.40;99.90;;;;;;4974960;28;20219;-91
2023/05/01 13:05:35;;;;;;;12.73;3.10;;;10.40;99.90;;;;;;4975575;28;20230;-91
2023/05/01 13:08:07;;;;;;;10.50;3.00;;;10.50;99.90;;;;;;4974593;28;20281;-89
2023/05/01 13:10:38;;;;;;;12.10;2.60;;;10.50;99.90;;;;;;4975438;28;20585;-91
2023/05/01 13:13:09;;;;;;;8.13;2.40;;;10.50;99.90;;;;;;4975644;28;20207;-90
2023/05/01 13:15:41;;;;;;;10.67;2.83;;;10.50;99.90;;;;;;4975430;28;20210;-90
2023/05/01 13:18:13;;;;;;;8.13;2.17;;;10.60;99.90;;;;;;4973651;28;20207;-91